sensor_id;sensor_type;location;lat;lon;timestamp;P1;durP1;ratioP1;P2;durP2;ratioP2
60257;SDS011;46115;44.484;11.314;2023-03-23T00:03:09;6.38;;;3.65;;
60257;SDS011;46115;44.484;11.314;2023-03-23T00:07:12;5.07;;;3.63;;
60257;SDS011;46115;44.484;11.314;2023-03-23T00:11:24;6.22;;;3.65;;
60257;SDS011;46115;44.484;11.314;2023-03-23T00:15:29;5.97;;;3.92;;
60257;SDS011;46115;44.484;11.314;2023-03-23T00:19:34;5.07;;;3.70;;
60257;SDS011;46115;44.484;11.314;2023-03-23T00:23:46;5.78;;;3.60;;
60257;SDS011;46115;44.484;11.314;2023-03-23T00:27:50;6.97;;;3.70;;
60257;SDS011;46115;44.484;11.314;2023-03-23T00:31:53;7.65;;;3.55;;
60257;SDS011;46115;44.484;11.314;2023-03-23T00:35:57;6.45;;;3.80;;
60257;SDS011;46115;44.484;11.314;2023-03-23T00:40:00;6.55;;;3.80;;
60257;SDS011;46115;44.484;11.314;2023-03-23T00:44:04;7.15;;;3.63;;
60257;SDS011;46115;44.484;11.314;2023-03-23T00:48:09;6.10;;;3.90;;
60257;SDS011;46115;44.484;11.314;2023-03-23T00:52:13;5.07;;;3.42;;
60257;SDS011;46115;44.484;11.314;2023-03-23T00:56:15;6.93;;;3.70;;
60257;SDS011;46115;44.484;11.314;2023-03-23T01:00:19;4.63;;;3.58;;
60257;SDS011;46115;44.484;11.314;2023-03-23T01:04:23;5.75;;;3.67;;
60257;SDS011;46115;44.484;11.314;2023-03-23T01:08:25;5.75;;;3.80;;
60257;SDS011;46115;44.484;11.314;2023-03-23T01:12:28;5.85;;;4.20;;
60257;SDS011;46115;44.484;11.314;2023-03-23T01:16:32;7.05;;;4.32;;
60257;SDS011;46115;44.484;11.314;2023-03-23T01:20:35;6.57;;;4.10;;
60257;SDS011;46115;44.484;11.314;2023-03-23T01:24:38;5.22;;;4.05;;
60257;SDS011;46115;44.484;11.314;2023-03-23T01:28:41;6.05;;;3.78;;
60257;SDS011;46115;44.484;11.314;2023-03-23T01:32:46;4.75;;;3.80;;
60257;SDS011;46115;44.484;11.314;2023-03-23T01:36:49;5.38;;;3.80;;
60257;SDS011;46115;44.484;11.314;2023-03-23T01:40:51;5.18;;;3.75;;
60257;SDS011;46115;44.484;11.314;2023-03-23T01:49:33;6.57;;;3.80;;
60257;SDS011;46115;44.484;11.314;2023-03-23T01:53:40;8.35;;;4.13;;
60257;SDS011;46115;44.484;11.314;2023-03-23T01:57:44;5.90;;;4.18;;
60257;SDS011;46115;44.484;11.314;2023-03-23T02:01:49;6.70;;;4.10;;
60257;SDS011;46115;44.484;11.314;2023-03-23T02:05:55;6.00;;;4.05;;
60257;SDS011;46115;44.484;11.314;2023-03-23T02:10:09;6.78;;;3.97;;
60257;SDS011;46115;44.484;11.314;2023-03-23T02:14:12;4.95;;;3.80;;
60257;SDS011;46115;44.484;11.314;2023-03-23T02:18:19;6.32;;;4.05;;
60257;SDS011;46115;44.484;11.314;2023-03-23T02:22:46;7.72;;;3.90;;
60257;SDS011;46115;44.484;11.314;2023-03-23T02:27:00;6.28;;;3.70;;
60257;SDS011;46115;44.484;11.314;2023-03-23T02:31:07;4.82;;;3.63;;
60257;SDS011;46115;44.484;11.314;2023-03-23T02:35:24;6.32;;;3.90;;
60257;SDS011;46115;44.484;11.314;2023-03-23T02:39:32;6.85;;;3.72;;
60257;SDS011;46115;44.484;11.314;2023-03-23T02:43:40;4.72;;;3.67;;
60257;SDS011;46115;44.484;11.314;2023-03-23T02:47:46;6.10;;;3.80;;
60257;SDS011;46115;44.484;11.314;2023-03-23T02:51:52;5.93;;;3.63;;
60257;SDS011;46115;44.484;11.314;2023-03-23T02:55:58;5.65;;;3.80;;
60257;SDS011;46115;44.484;11.314;2023-03-23T03:00:04;5.85;;;4.00;;
60257;SDS011;46115;44.484;11.314;2023-03-23T03:04:11;6.28;;;4.03;;
60257;SDS011;46115;44.484;11.314;2023-03-23T03:08:20;6.63;;;3.95;;
60257;SDS011;46115;44.484;11.314;2023-03-23T03:12:34;5.43;;;4.20;;
60257;SDS011;46115;44.484;11.314;2023-03-23T03:16:43;6.13;;;4.22;;
60257;SDS011;46115;44.484;11.314;2023-03-23T03:20:51;8.82;;;4.20;;
60257;SDS011;46115;44.484;11.314;2023-03-23T03:24:59;6.55;;;4.25;;
60257;SDS011;46115;44.484;11.314;2023-03-23T03:29:03;6.68;;;4.13;;
60257;SDS011;46115;44.484;11.314;2023-03-23T03:33:09;5.95;;;3.97;;
60257;SDS011;46115;44.484;11.314;2023-03-23T03:37:13;5.55;;;4.38;;
60257;SDS011;46115;44.484;11.314;2023-03-23T03:41:19;4.88;;;4.20;;
60257;SDS011;46115;44.484;11.314;2023-03-23T03:45:23;6.10;;;3.95;;
60257;SDS011;46115;44.484;11.314;2023-03-23T03:49:25;6.60;;;4.40;;
60257;SDS011;46115;44.484;11.314;2023-03-23T03:53:29;6.57;;;4.32;;
60257;SDS011;46115;44.484;11.314;2023-03-23T03:57:33;6.43;;;4.53;;
60257;SDS011;46115;44.484;11.314;2023-03-23T04:01:39;7.65;;;4.28;;
60257;SDS011;46115;44.484;11.314;2023-03-23T04:05:42;6.90;;;4.20;;
60257;SDS011;46115;44.484;11.314;2023-03-23T04:09:46;7.05;;;4.38;;
60257;SDS011;46115;44.484;11.314;2023-03-23T04:13:53;6.57;;;4.28;;
60257;SDS011;46115;44.484;11.314;2023-03-23T04:17:59;5.78;;;4.20;;
60257;SDS011;46115;44.484;11.314;2023-03-23T04:22:03;8.80;;;4.70;;
60257;SDS011;46115;44.484;11.314;2023-03-23T04:26:09;7.50;;;4.40;;
60257;SDS011;46115;44.484;11.314;2023-03-23T04:30:18;7.88;;;5.28;;
60257;SDS011;46115;44.484;11.314;2023-03-23T04:34:30;6.60;;;4.95;;
60257;SDS011;46115;44.484;11.314;2023-03-23T04:38:33;6.38;;;4.72;;
60257;SDS011;46115;44.484;11.314;2023-03-23T04:42:45;7.18;;;4.63;;
60257;SDS011;46115;44.484;11.314;2023-03-23T04:47:08;6.32;;;4.50;;
60257;SDS011;46115;44.484;11.314;2023-03-23T04:51:17;6.78;;;4.57;;
60257;SDS011;46115;44.484;11.314;2023-03-23T04:55:23;7.32;;;4.63;;
60257;SDS011;46115;44.484;11.314;2023-03-23T04:59:31;5.88;;;4.53;;
60257;SDS011;46115;44.484;11.314;2023-03-23T05:03:42;6.25;;;4.32;;
60257;SDS011;46115;44.484;11.314;2023-03-23T05:07:45;6.93;;;4.70;;
60257;SDS011;46115;44.484;11.314;2023-03-23T05:11:51;5.75;;;4.65;;
60257;SDS011;46115;44.484;11.314;2023-03-23T05:15:53;7.88;;;4.75;;
60257;SDS011;46115;44.484;11.314;2023-03-23T05:19:58;5.88;;;4.45;;
60257;SDS011;46115;44.484;11.314;2023-03-23T05:24:10;7.10;;;4.20;;
60257;SDS011;46115;44.484;11.314;2023-03-23T05:28:14;8.30;;;4.78;;
60257;SDS011;46115;44.484;11.314;2023-03-23T05:32:22;6.35;;;4.68;;
60257;SDS011;46115;44.484;11.314;2023-03-23T05:36:31;6.45;;;4.72;;
60257;SDS011;46115;44.484;11.314;2023-03-23T05:40:57;7.57;;;4.80;;
60257;SDS011;46115;44.484;11.314;2023-03-23T05:45:05;6.55;;;5.13;;
60257;SDS011;46115;44.484;11.314;2023-03-23T05:49:10;7.55;;;4.32;;
60257;SDS011;46115;44.484;11.314;2023-03-23T05:53:16;8.13;;;4.80;;
60257;SDS011;46115;44.484;11.314;2023-03-23T05:57:19;6.97;;;4.75;;
60257;SDS011;46115;44.484;11.314;2023-03-23T06:01:34;6.97;;;4.80;;
60257;SDS011;46115;44.484;11.314;2023-03-23T06:05:36;9.50;;;5.13;;
60257;SDS011;46115;44.484;11.314;2023-03-23T06:09:46;5.65;;;4.70;;
60257;SDS011;46115;44.484;11.314;2023-03-23T06:13:59;7.07;;;4.80;;
60257;SDS011;46115;44.484;11.314;2023-03-23T06:18:04;6.85;;;4.50;;
60257;SDS011;46115;44.484;11.314;2023-03-23T06:22:14;6.70;;;4.43;;
60257;SDS011;46115;44.484;11.314;2023-03-23T06:26:21;7.03;;;4.57;;
60257;SDS011;46115;44.484;11.314;2023-03-23T06:30:33;7.68;;;4.70;;
60257;SDS011;46115;44.484;11.314;2023-03-23T06:34:36;7.20;;;4.85;;
60257;SDS011;46115;44.484;11.314;2023-03-23T06:38:59;6.15;;;4.82;;
60257;SDS011;46115;44.484;11.314;2023-03-23T06:43:19;6.20;;;5.25;;
60257;SDS011;46115;44.484;11.314;2023-03-23T06:47:44;7.55;;;4.50;;
60257;SDS011;46115;44.484;11.314;2023-03-23T06:51:49;8.77;;;5.13;;
60257;SDS011;46115;44.484;11.314;2023-03-23T06:55:52;5.72;;;4.55;;
60257;SDS011;46115;44.484;11.314;2023-03-23T06:59:56;5.40;;;4.38;;
60257;SDS011;46115;44.484;11.314;2023-03-23T07:04:00;7.72;;;4.28;;
60257;SDS011;46115;44.484;11.314;2023-03-23T07:08:12;4.78;;;3.78;;
60257;SDS011;46115;44.484;11.314;2023-03-23T07:12:20;6.80;;;4.28;;
60257;SDS011;46115;44.484;11.314;2023-03-23T07:16:27;5.53;;;4.00;;
60257;SDS011;46115;44.484;11.314;2023-03-23T07:20:29;4.70;;;3.50;;
60257;SDS011;46115;44.484;11.314;2023-03-23T07:24:32;8.30;;;3.92;;
60257;SDS011;46115;44.484;11.314;2023-03-23T07:29:07;4.50;;;3.75;;
60257;SDS011;46115;44.484;11.314;2023-03-23T07:33:17;5.80;;;3.55;;
60257;SDS011;46115;44.484;11.314;2023-03-23T07:37:21;4.88;;;3.60;;
60257;SDS011;46115;44.484;11.314;2023-03-23T07:41:25;5.57;;;3.58;;
60257;SDS011;46115;44.484;11.314;2023-03-23T07:45:30;4.53;;;3.28;;
60257;SDS011;46115;44.484;11.314;2023-03-23T07:49:35;5.07;;;3.53;;
60257;SDS011;46115;44.484;11.314;2023-03-23T07:53:50;4.65;;;3.35;;
60257;SDS011;46115;44.484;11.314;2023-03-23T07:58:19;5.13;;;3.28;;
60257;SDS011;46115;44.484;11.314;2023-03-23T08:02:27;3.90;;;3.20;;
60257;SDS011;46115;44.484;11.314;2023-03-23T08:07:00;4.45;;;3.40;;
60257;SDS011;46115;44.484;11.314;2023-03-23T08:11:14;4.53;;;3.50;;
60257;SDS011;46115;44.484;11.314;2023-03-23T08:15:20;4.30;;;3.20;;
60257;SDS011;46115;44.484;11.314;2023-03-23T08:19:46;6.07;;;3.08;;
60257;SDS011;46115;44.484;11.314;2023-03-23T08:24:10;7.43;;;4.07;;
60257;SDS011;46115;44.484;11.314;2023-03-23T08:28:37;7.63;;;4.55;;
60257;SDS011;46115;44.484;11.314;2023-03-23T08:32:40;7.68;;;4.97;;
60257;SDS011;46115;44.484;11.314;2023-03-23T08:36:57;8.38;;;4.30;;
60257;SDS011;46115;44.484;11.314;2023-03-23T08:41:20;6.87;;;3.83;;
60257;SDS011;46115;44.484;11.314;2023-03-23T08:45:29;8.32;;;4.82;;
60257;SDS011;46115;44.484;11.314;2023-03-23T08:49:50;7.90;;;4.63;;
60257;SDS011;46115;44.484;11.314;2023-03-23T08:54:12;7.10;;;4.72;;
60257;SDS011;46115;44.484;11.314;2023-03-23T08:58:35;9.00;;;5.57;;
60257;SDS011;46115;44.484;11.314;2023-03-23T09:03:06;7.45;;;4.80;;
60257;SDS011;46115;44.484;11.314;2023-03-23T09:07:27;9.82;;;5.28;;
60257;SDS011;46115;44.484;11.314;2023-03-23T09:11:29;6.75;;;4.97;;
60257;SDS011;46115;44.484;11.314;2023-03-23T09:15:33;7.22;;;5.32;;
60257;SDS011;46115;44.484;11.314;2023-03-23T09:19:36;7.88;;;5.35;;
60257;SDS011;46115;44.484;11.314;2023-03-23T09:23:39;9.32;;;5.63;;
60257;SDS011;46115;44.484;11.314;2023-03-23T09:27:45;9.27;;;5.13;;
60257;SDS011;46115;44.484;11.314;2023-03-23T09:31:51;11.32;;;5.93;;
60257;SDS011;46115;44.484;11.314;2023-03-23T09:35:54;8.35;;;4.97;;
60257;SDS011;46115;44.484;11.314;2023-03-23T09:39:56;7.30;;;5.30;;
60257;SDS011;46115;44.484;11.314;2023-03-23T09:44:01;10.00;;;5.35;;
60257;SDS011;46115;44.484;11.314;2023-03-23T09:48:24;9.03;;;5.03;;
60257;SDS011;46115;44.484;11.314;2023-03-23T09:52:36;7.93;;;5.53;;
60257;SDS011;46115;44.484;11.314;2023-03-23T09:56:42;9.10;;;5.45;;
60257;SDS011;46115;44.484;11.314;2023-03-23T10:00:47;9.32;;;5.50;;
60257;SDS011;46115;44.484;11.314;2023-03-23T10:05:12;7.40;;;5.35;;
60257;SDS011;46115;44.484;11.314;2023-03-23T10:09:24;7.70;;;5.72;;
60257;SDS011;46115;44.484;11.314;2023-03-23T10:13:32;12.00;;;6.60;;
60257;SDS011;46115;44.484;11.314;2023-03-23T10:17:46;7.40;;;5.57;;
60257;SDS011;46115;44.484;11.314;2023-03-23T10:21:57;9.25;;;6.18;;
60257;SDS011;46115;44.484;11.314;2023-03-23T10:26:17;10.27;;;5.80;;
60257;SDS011;46115;44.484;11.314;2023-03-23T10:30:31;9.70;;;6.32;;
60257;SDS011;46115;44.484;11.314;2023-03-23T10:34:40;10.68;;;6.00;;
60257;SDS011;46115;44.484;11.314;2023-03-23T10:38:47;12.68;;;6.55;;
60257;SDS011;46115;44.484;11.314;2023-03-23T10:42:52;13.20;;;7.38;;
60257;SDS011;46115;44.484;11.314;2023-03-23T10:46:58;12.63;;;7.20;;
60257;SDS011;46115;44.484;11.314;2023-03-23T10:51:04;12.23;;;7.25;;
60257;SDS011;46115;44.484;11.314;2023-03-23T10:55:14;11.85;;;7.40;;
60257;SDS011;46115;44.484;11.314;2023-03-23T10:59:18;13.13;;;7.30;;
60257;SDS011;46115;44.484;11.314;2023-03-23T11:03:27;13.63;;;7.78;;
60257;SDS011;46115;44.484;11.314;2023-03-23T11:07:40;14.48;;;7.55;;
60257;SDS011;46115;44.484;11.314;2023-03-23T11:11:48;14.32;;;7.32;;
60257;SDS011;46115;44.484;11.314;2023-03-23T11:15:51;13.73;;;6.70;;
60257;SDS011;46115;44.484;11.314;2023-03-23T11:19:54;12.63;;;7.25;;
60257;SDS011;46115;44.484;11.314;2023-03-23T11:23:57;16.75;;;7.00;;
60257;SDS011;46115;44.484;11.314;2023-03-23T11:28:03;15.38;;;7.95;;
60257;SDS011;46115;44.484;11.314;2023-03-23T11:32:06;15.05;;;7.90;;
60257;SDS011;46115;44.484;11.314;2023-03-23T11:36:13;13.68;;;8.23;;
60257;SDS011;46115;44.484;11.314;2023-03-23T11:40:18;15.23;;;8.48;;
60257;SDS011;46115;44.484;11.314;2023-03-23T11:44:24;19.02;;;8.80;;
60257;SDS011;46115;44.484;11.314;2023-03-23T11:48:35;15.73;;;8.30;;
60257;SDS011;46115;44.484;11.314;2023-03-23T11:52:44;13.52;;;7.93;;
60257;SDS011;46115;44.484;11.314;2023-03-23T11:56:51;15.38;;;8.35;;
60257;SDS011;46115;44.484;11.314;2023-03-23T12:00:57;16.13;;;8.10;;
60257;SDS011;46115;44.484;11.314;2023-03-23T12:05:10;15.88;;;8.60;;
60257;SDS011;46115;44.484;11.314;2023-03-23T12:09:33;15.50;;;8.60;;
60257;SDS011;46115;44.484;11.314;2023-03-23T12:13:50;15.00;;;8.73;;
60257;SDS011;46115;44.484;11.314;2023-03-23T12:18:05;16.90;;;8.80;;
60257;SDS011;46115;44.484;11.314;2023-03-23T12:22:28;16.75;;;8.27;;
60257;SDS011;46115;44.484;11.314;2023-03-23T12:26:39;16.90;;;8.82;;
60257;SDS011;46115;44.484;11.314;2023-03-23T12:30:52;16.15;;;8.63;;
60257;SDS011;46115;44.484;11.314;2023-03-23T12:35:05;18.25;;;8.30;;
60257;SDS011;46115;44.484;11.314;2023-03-23T12:39:37;17.13;;;9.10;;
60257;SDS011;46115;44.484;11.314;2023-03-23T12:43:57;19.27;;;9.90;;
60257;SDS011;46115;44.484;11.314;2023-03-23T12:48:03;25.20;;;10.18;;
60257;SDS011;46115;44.484;11.314;2023-03-23T12:52:13;20.45;;;9.88;;
60257;SDS011;46115;44.484;11.314;2023-03-23T12:56:22;21.67;;;10.23;;
60257;SDS011;46115;44.484;11.314;2023-03-23T13:00:30;21.85;;;11.02;;
60257;SDS011;46115;44.484;11.314;2023-03-23T13:04:41;20.63;;;9.57;;
60257;SDS011;46115;44.484;11.314;2023-03-23T13:08:51;19.85;;;9.95;;
60257;SDS011;46115;44.484;11.314;2023-03-23T13:12:57;18.33;;;9.23;;
60257;SDS011;46115;44.484;11.314;2023-03-23T13:17:04;20.83;;;9.77;;
60257;SDS011;46115;44.484;11.314;2023-03-23T13:21:14;25.80;;;10.52;;
60257;SDS011;46115;44.484;11.314;2023-03-23T13:25:25;25.20;;;10.45;;
60257;SDS011;46115;44.484;11.314;2023-03-23T13:29:46;18.55;;;9.95;;
60257;SDS011;46115;44.484;11.314;2023-03-23T13:33:49;21.55;;;10.38;;
60257;SDS011;46115;44.484;11.314;2023-03-23T13:37:53;21.77;;;11.85;;
60257;SDS011;46115;44.484;11.314;2023-03-23T13:42:02;20.02;;;11.15;;
60257;SDS011;46115;44.484;11.314;2023-03-23T13:46:11;19.85;;;12.77;;
60257;SDS011;46115;44.484;11.314;2023-03-23T13:50:26;21.58;;;11.40;;
60257;SDS011;46115;44.484;11.314;2023-03-23T13:54:37;19.20;;;11.45;;
60257;SDS011;46115;44.484;11.314;2023-03-23T13:58:48;20.65;;;11.65;;
60257;SDS011;46115;44.484;11.314;2023-03-23T14:02:58;19.15;;;10.93;;
60257;SDS011;46115;44.484;11.314;2023-03-23T14:07:08;20.83;;;11.75;;
60257;SDS011;46115;44.484;11.314;2023-03-23T14:11:13;20.70;;;12.20;;
60257;SDS011;46115;44.484;11.314;2023-03-23T14:15:27;23.90;;;11.90;;
60257;SDS011;46115;44.484;11.314;2023-03-23T14:19:32;20.98;;;12.13;;
60257;SDS011;46115;44.484;11.314;2023-03-23T14:23:34;24.10;;;14.45;;
60257;SDS011;46115;44.484;11.314;2023-03-23T14:27:37;27.63;;;14.90;;
60257;SDS011;46115;44.484;11.314;2023-03-23T14:31:41;24.45;;;12.73;;
60257;SDS011;46115;44.484;11.314;2023-03-23T14:35:44;26.98;;;14.57;;
60257;SDS011;46115;44.484;11.314;2023-03-23T14:39:47;27.65;;;13.38;;
60257;SDS011;46115;44.484;11.314;2023-03-23T14:43:51;26.52;;;13.50;;
60257;SDS011;46115;44.484;11.314;2023-03-23T14:47:56;26.92;;;14.70;;
60257;SDS011;46115;44.484;11.314;2023-03-23T14:52:02;29.00;;;13.88;;
60257;SDS011;46115;44.484;11.314;2023-03-23T14:56:11;28.05;;;13.63;;
60257;SDS011;46115;44.484;11.314;2023-03-23T15:00:17;27.52;;;12.85;;
60257;SDS011;46115;44.484;11.314;2023-03-23T15:04:23;25.17;;;12.05;;
60257;SDS011;46115;44.484;11.314;2023-03-23T15:08:28;25.67;;;12.98;;
60257;SDS011;46115;44.484;11.314;2023-03-23T15:12:32;25.20;;;12.63;;
60257;SDS011;46115;44.484;11.314;2023-03-23T15:16:36;25.83;;;12.50;;
60257;SDS011;46115;44.484;11.314;2023-03-23T15:20:47;25.38;;;12.25;;
60257;SDS011;46115;44.484;11.314;2023-03-23T15:24:51;26.52;;;11.43;;
60257;SDS011;46115;44.484;11.314;2023-03-23T15:29:01;28.15;;;11.02;;
60257;SDS011;46115;44.484;11.314;2023-03-23T15:33:12;26.33;;;11.48;;
60257;SDS011;46115;44.484;11.314;2023-03-23T15:37:18;26.17;;;11.32;;
60257;SDS011;46115;44.484;11.314;2023-03-23T15:41:23;29.30;;;11.38;;
60257;SDS011;46115;44.484;11.314;2023-03-23T15:45:27;24.75;;;10.43;;
60257;SDS011;46115;44.484;11.314;2023-03-23T15:49:30;24.15;;;10.60;;
60257;SDS011;46115;44.484;11.314;2023-03-23T15:53:35;26.17;;;11.45;;
60257;SDS011;46115;44.484;11.314;2023-03-23T15:57:38;25.48;;;11.52;;
60257;SDS011;46115;44.484;11.314;2023-03-23T16:01:41;29.95;;;12.25;;
60257;SDS011;46115;44.484;11.314;2023-03-23T16:05:44;26.85;;;11.68;;
60257;SDS011;46115;44.484;11.314;2023-03-23T16:09:48;26.17;;;11.63;;
60257;SDS011;46115;44.484;11.314;2023-03-23T16:13:51;25.15;;;12.10;;
60257;SDS011;46115;44.484;11.314;2023-03-23T16:17:53;24.45;;;12.10;;
60257;SDS011;46115;44.484;11.314;2023-03-23T16:21:56;25.75;;;12.05;;
60257;SDS011;46115;44.484;11.314;2023-03-23T16:26:00;28.05;;;11.80;;
60257;SDS011;46115;44.484;11.314;2023-03-23T16:30:08;25.90;;;11.80;;
60257;SDS011;46115;44.484;11.314;2023-03-23T16:34:15;26.35;;;11.40;;
60257;SDS011;46115;44.484;11.314;2023-03-23T16:38:17;29.48;;;12.52;;
60257;SDS011;46115;44.484;11.314;2023-03-23T16:42:22;31.20;;;12.75;;
60257;SDS011;46115;44.484;11.314;2023-03-23T16:46:24;29.90;;;11.93;;
60257;SDS011;46115;44.484;11.314;2023-03-23T16:50:27;31.27;;;11.60;;
60257;SDS011;46115;44.484;11.314;2023-03-23T16:54:30;29.58;;;11.85;;
60257;SDS011;46115;44.484;11.314;2023-03-23T16:58:34;23.40;;;11.23;;
60257;SDS011;46115;44.484;11.314;2023-03-23T17:02:37;24.95;;;10.23;;
60257;SDS011;46115;44.484;11.314;2023-03-23T17:06:42;26.50;;;11.20;;
60257;SDS011;46115;44.484;11.314;2023-03-23T17:10:46;21.15;;;8.60;;
60257;SDS011;46115;44.484;11.314;2023-03-23T17:14:50;18.15;;;9.13;;
60257;SDS011;46115;44.484;11.314;2023-03-23T17:18:53;17.80;;;7.22;;
60257;SDS011;46115;44.484;11.314;2023-03-23T17:22:55;17.73;;;8.07;;
60257;SDS011;46115;44.484;11.314;2023-03-23T17:27:00;14.70;;;7.53;;
60257;SDS011;46115;44.484;11.314;2023-03-23T17:31:04;16.92;;;7.55;;
60257;SDS011;46115;44.484;11.314;2023-03-23T17:35:07;12.30;;;7.00;;
60257;SDS011;46115;44.484;11.314;2023-03-23T17:39:10;11.63;;;4.80;;
60257;SDS011;46115;44.484;11.314;2023-03-23T17:43:12;7.72;;;3.22;;
60257;SDS011;46115;44.484;11.314;2023-03-23T17:47:16;4.90;;;2.00;;
60257;SDS011;46115;44.484;11.314;2023-03-23T17:51:19;2.63;;;1.70;;
60257;SDS011;46115;44.484;11.314;2023-03-23T17:55:21;3.63;;;1.70;;
60257;SDS011;46115;44.484;11.314;2023-03-23T17:59:24;4.53;;;1.70;;
60257;SDS011;46115;44.484;11.314;2023-03-23T18:03:30;4.28;;;1.70;;
60257;SDS011;46115;44.484;11.314;2023-03-23T23:06:08;4.25;;;2.63;;
60257;SDS011;46115;44.484;11.314;2023-03-23T23:10:12;4.40;;;2.50;;
60257;SDS011;46115;44.484;11.314;2023-03-23T23:14:14;5.22;;;3.03;;
60257;SDS011;46115;44.484;11.314;2023-03-23T23:18:17;4.45;;;2.50;;
60257;SDS011;46115;44.484;11.314;2023-03-23T23:22:23;4.97;;;2.60;;
60257;SDS011;46115;44.484;11.314;2023-03-23T23:26:26;4.20;;;2.67;;
60257;SDS011;46115;44.484;11.314;2023-03-23T23:30:29;4.07;;;3.00;;
60257;SDS011;46115;44.484;11.314;2023-03-23T23:34:32;4.05;;;2.72;;
60257;SDS011;46115;44.484;11.314;2023-03-23T23:38:37;5.68;;;2.83;;
60257;SDS011;46115;44.484;11.314;2023-03-23T23:42:39;4.55;;;3.00;;
60257;SDS011;46115;44.484;11.314;2023-03-23T23:46:42;5.00;;;2.70;;
60257;SDS011;46115;44.484;11.314;2023-03-23T23:50:44;6.25;;;2.70;;
60257;SDS011;46115;44.484;11.314;2023-03-23T23:54:48;4.80;;;2.80;;
60257;SDS011;46115;44.484;11.314;2023-03-23T23:58:52;6.78;;;3.72;;
